Time;durP1;ratioP1;P1;durP2;ratioP2;P2;SDS_P1;SDS_P2;PMS_P1;PMS_P2;Temp;Humidity;BMP_temperature;BMP_pressure;BME280_temperature;BME280_humidity;BME280_pressure;Samples;Min_cycle;Max_cycle;Signal;HPM_P1;HPM_P2
2023/07/11 00:00:39;;;;;;;;;;;16.80;99.90;;;;;;6275000;22;19945;-82
2023/07/11 00:03:04;;;;;;;;;;;16.80;99.90;;;;;;6249091;22;19907;-82
2023/07/11 00:05:30;;;;;;;;;;;16.70;99.90;;;;;;6274690;22;20641;-83
2023/07/11 00:07:57;;;;;;;;;;;16.70;99.90;;;;;;6275150;22;19911;-82
2023/07/11 00:10:23;;;;;;;;;;;16.60;99.90;;;;;;6248950;22;19914;-82
2023/07/11 00:12:49;;;;;;;;;;;16.70;99.90;;;;;;6249648;22;19914;-82
2023/07/11 00:15:27;;;;;;;;;;;16.70;99.90;;;;;;6249302;22;19907;-82
2023/07/11 00:17:53;;;;;;;;;;;16.60;99.90;;;;;;6300622;22;20644;-82
2023/07/11 00:20:18;;;;;;;;;;;16.60;99.90;;;;;;6274646;22;19911;-82
2023/07/11 00:22:45;;;;;;;;;;;16.60;99.90;;;;;;6274642;22;19911;-82
2023/07/11 00:25:11;;;;;;;;;;;16.60;99.90;;;;;;6300698;22;20586;-82
2023/07/11 00:27:36;;;;;;;;;;;16.60;99.90;;;;;;6274528;22;19930;-82
2023/07/11 00:30:03;;;;;;;;;;;16.60;99.90;;;;;;6249038;22;19907;-82
2023/07/11 00:32:28;;;;;;;;;;;16.60;99.90;;;;;;6275287;22;19914;-82
2023/07/11 00:34:54;;;;;;;;;;;16.80;99.90;;;;;;6276546;22;20246;-82
2023/07/11 00:37:21;;;;;;;;;;;16.90;99.90;;;;;;6274815;22;19914;-82
2023/07/11 00:39:47;;;;;;;;;;;16.90;99.90;;;;;;6274329;22;19974;-82
2023/07/11 00:42:12;;;;;;;;;;;16.90;99.90;;;;;;6275926;22;19946;-82
2023/07/11 00:44:48;;;;;;;;;;;16.90;99.90;;;;;;6248925;22;19918;-82
2023/07/11 00:47:14;;;;;;;;;;;17.00;99.90;;;;;;6276607;22;19962;-82
2023/07/11 00:49:40;;;;;;;;;;;16.90;99.90;;;;;;6276556;22;19911;-82
2023/07/11 00:52:06;;;;;;;;;;;16.90;99.90;;;;;;6276851;22;20342;-82
2023/07/11 00:55:07;;;;;;;;;;;16.90;99.90;;;;;;6276339;22;19915;-82
2023/07/11 00:57:35;;;;;;;;;;;16.90;99.90;;;;;;6275926;22;19907;-82
2023/07/11 01:00:17;;;;;;;;;;;16.80;99.90;;;;;;6301529;22;19914;-82
2023/07/11 01:02:42;;;;;;;;;;;16.80;99.90;;;;;;6276197;22;20361;-82
2023/07/11 01:05:09;;;;;;;;;;;16.90;99.90;;;;;;6276632;22;19915;-82
2023/07/11 01:07:35;;;;;;;;;;;16.90;99.90;;;;;;6276228;22;20239;-82
2023/07/11 01:10:02;;;;;;;;;;;16.90;99.90;;;;;;6275773;22;19915;-82
2023/07/11 01:12:29;;;;;;;;;;;16.90;99.90;;;;;;6275595;22;19907;-82
2023/07/11 01:14:55;;;;;;;;;;;16.90;99.90;;;;;;6276111;22;19907;-82
2023/07/11 01:17:24;;;;;;;;;;;16.90;99.90;;;;;;6250366;22;19911;-81
2023/07/11 01:19:50;;;;;;;;;;;16.90;99.90;;;;;;6249768;22;19911;-82
2023/07/11 01:22:16;;;;;;;;;;;16.90;99.90;;;;;;6275771;22;19920;-82
2023/07/11 01:24:41;;;;;;;;;;;16.90;99.90;;;;;;6301999;22;20223;-82
2023/07/11 01:27:07;;;;;;;;;;;16.90;99.90;;;;;;6276418;22;19907;-82
2023/07/11 01:29:33;;;;;;;;;;;17.00;99.90;;;;;;6250617;22;19942;-83
2023/07/11 01:31:59;;;;;;;;;;;16.90;99.90;;;;;;6250412;22;20315;-82
2023/07/11 01:34:25;;;;;;;;;;;16.90;99.90;;;;;;6276049;22;19907;-82
2023/07/11 01:37:18;;;;;;;;;;;16.70;99.90;;;;;;6276369;22;19907;-82
2023/07/11 01:40:09;;;;;;;;;;;16.70;99.90;;;;;;6275836;22;19957;-82
2023/07/11 01:42:35;;;;;;;;;;;16.60;99.90;;;;;;6301340;22;19915;-82
2023/07/11 01:45:01;;;;;;;;;;;16.60;99.90;;;;;;6276109;22;19929;-82
2023/07/11 01:47:26;;;;;;;;;;;16.60;99.90;;;;;;6250392;22;20382;-82
2023/07/11 01:49:52;;;;;;;;;;;16.60;99.90;;;;;;6276329;22;19911;-82
2023/07/11 01:52:19;;;;;;;;;;;16.50;99.90;;;;;;6276185;22;19907;-82
2023/07/11 01:54:45;;;;;;;;;;;16.50;99.90;;;;;;6275832;22;19942;-82
2023/07/11 01:57:11;;;;;;;;;;;16.50;99.90;;;;;;6275561;22;19907;-82
2023/07/11 01:59:37;;;;;;;;;;;16.40;99.90;;;;;;6276273;22;19907;-82
2023/07/11 02:02:04;;;;;;;;;;;16.40;99.90;;;;;;6275998;22;19986;-83
2023/07/11 02:04:30;;;;;;;;;;;16.40;99.90;;;;;;6275382;22;19949;-82
2023/07/11 02:06:56;;;;;;;;;;;16.40;99.90;;;;;;6275941;22;19942;-82
2023/07/11 02:09:22;;;;;;;;;;;16.50;99.90;;;;;;6276257;22;20262;-83
2023/07/11 02:11:48;;;;;;;;;;;16.50;99.90;;;;;;6276290;22;20354;-83
2023/07/11 02:14:15;;;;;;;;;;;16.60;99.90;;;;;;6275716;22;19908;-82
2023/07/11 02:16:44;;;;;;;;;;;16.60;99.90;;;;;;6275701;22;20389;-83
2023/07/11 02:19:13;;;;;;;;;;;16.70;99.90;;;;;;6276230;22;19986;-82
2023/07/11 02:21:39;;;;;;;;;;;16.70;99.90;;;;;;6275406;22;20239;-82
2023/07/11 02:24:17;;;;;;;;;;;16.80;99.90;;;;;;6275911;22;19914;-82
2023/07/11 02:26:43;;;;;;;;;;;16.80;99.90;;;;;;6275360;22;19907;-82
2023/07/11 02:29:09;;;;;;;;;;;16.90;99.90;;;;;;6275208;22;19990;-82
2023/07/11 02:31:36;;;;;;;;;;;16.90;99.90;;;;;;6274731;22;19911;-82
2023/07/11 02:34:02;;;;;;;;;;;17.00;99.90;;;;;;6275275;22;19942;-82
2023/07/11 02:36:28;;;;;;;;;;;17.00;99.90;;;;;;6249972;22;20045;-82
2023/07/11 02:38:54;;;;;;;;;;;17.00;99.90;;;;;;6275664;22;19934;-82
2023/07/11 02:41:20;;;;;;;;;;;17.10;99.90;;;;;;6301470;22;19907;-82
2023/07/11 02:43:55;;;;;;;;;;;17.10;99.90;;;;;;6275261;22;19921;-83
2023/07/11 02:46:21;;;;;;;;;;;17.10;99.90;;;;;;6274871;22;19961;-83
2023/07/11 02:48:46;;;;;;;;;;;17.10;99.90;;;;;;6275223;22;19915;-83
2023/07/11 02:51:12;;;;;;;;;;;17.10;99.90;;;;;;6275506;22;19957;-82
2023/07/11 02:53:38;;;;;;;;;;;17.10;99.90;;;;;;6274722;22;19907;-83
2023/07/11 02:56:04;;;;;;;;;;;17.10;99.90;;;;;;6249806;22;19915;-82
2023/07/11 02:58:29;;;;;;;;;;;17.10;99.90;;;;;;6301542;22;20220;-82
2023/07/11 03:00:56;;;;;;;;;;;17.10;99.90;;;;;;6275199;22;20347;-82
2023/07/11 03:03:22;;;;;;;;;;;17.10;99.90;;;;;;6275425;22;19911;-82
2023/07/11 03:05:49;;;;;;;;;;;17.10;99.90;;;;;;6275808;22;19917;-82
2023/07/11 03:08:15;;;;;;;;;;;17.10;99.90;;;;;;6301222;22;20325;-82
2023/07/11 03:10:41;;;;;;;;;;;17.10;99.90;;;;;;6274733;22;19907;-82
2023/07/11 03:13:07;;;;;;;;;;;17.10;99.90;;;;;;6301186;22;20366;-82
2023/07/11 03:15:33;;;;;;;;;;;17.10;99.90;;;;;;6276845;22;20239;-82
2023/07/11 03:17:59;;;;;;;;;;;17.10;99.90;;;;;;6274762;22;19914;-83
2023/07/11 03:20:24;;;;;;;;;;;17.10;99.90;;;;;;6275003;22;19907;-82
2023/07/11 03:22:50;;;;;;;;;;;17.10;99.90;;;;;;6249380;22;19918;-82
2023/07/11 03:25:16;;;;;;;;;;;17.10;99.90;;;;;;6274931;22;19919;-81
2023/07/11 03:27:41;;;;;;;;;;;17.10;99.90;;;;;;6249546;22;20475;-82
2023/07/11 03:30:22;;;;;;;;;;;17.00;99.90;;;;;;6249346;22;19961;-82
2023/07/11 03:32:48;;;;;;;;;;;17.00;99.90;;;;;;6275130;22;19907;-84
2023/07/11 03:35:14;;;;;;;;;;;16.90;99.90;;;;;;6275147;22;19945;-84
2023/07/11 03:37:39;;;;;;;;;;;16.90;99.90;;;;;;6275247;22;20283;-84
2023/07/11 03:40:05;;;;;;;;;;;16.90;99.90;;;;;;6300323;22;19907;-85
2023/07/11 03:42:31;;;;;;;;;;;16.90;99.90;;;;;;6275400;22;19911;-85
2023/07/11 03:44:57;;;;;;;;;;;17.00;99.90;;;;;;6249534;22;19914;-85
2023/07/11 03:47:23;;;;;;;;;;;17.00;99.90;;;;;;6275358;22;20220;-85
2023/07/11 03:49:48;;;;;;;;;;;17.00;99.90;;;;;;6274720;22;20495;-85
2023/07/11 03:52:14;;;;;;;;;;;17.00;99.90;;;;;;6250054;22;20012;-84
2023/07/11 03:54:42;;;;;;;;;;;17.10;99.90;;;;;;6301159;22;19945;-85
2023/07/11 03:57:11;;;;;;;;;;;17.10;99.90;;;;;;6301081;22;19907;-84
2023/07/11 03:59:36;;;;;;;;;;;17.10;99.90;;;;;;6249677;22;19911;-85
2023/07/11 04:02:02;;;;;;;;;;;17.00;99.90;;;;;;6275170;22;20026;-85
2023/07/11 04:04:28;;;;;;;;;;;17.00;99.90;;;;;;6274867;22;19914;-85
2023/07/11 04:06:53;;;;;;;;;;;17.00;99.90;;;;;;6275191;22;20320;-84
2023/07/11 04:09:19;;;;;;;;;;;17.00;99.90;;;;;;6275557;22;19907;-85
2023/07/11 04:11:45;;;;;;;;;;;17.00;99.90;;;;;;6249553;22;19939;-85
2023/07/11 04:14:11;;;;;;;;;;;17.00;99.90;;;;;;6249568;22;19934;-85
2023/07/11 04:16:36;;;;;;;;;;;17.00;99.90;;;;;;6300865;22;19915;-85
2023/07/11 04:19:02;;;;;;;;;;;17.00;99.90;;;;;;6274856;22;20221;-85
2023/07/11 04:21:28;;;;;;;;;;;17.10;99.90;;;;;;6248967;22;20628;-84
2023/07/11 04:23:54;;;;;;;;;;;17.20;99.90;;;;;;6249070;22;19919;-85
2023/07/11 04:26:19;;;;;;;;;;;17.20;99.90;;;;;;6249679;22;19907;-85
2023/07/11 04:28:45;;;;;;;;;;;17.30;99.90;;;;;;6276752;22;19907;-85
2023/07/11 04:31:11;;;;;;;;;;;17.30;99.90;;;;;;6249137;22;20518;-85
2023/07/11 04:33:36;;;;;;;;;;;17.40;99.90;;;;;;6249341;22;19934;-83
2023/07/11 04:36:06;;;;;;;;;;;17.50;99.90;;;;;;6249311;22;19907;-85
2023/07/11 04:38:32;;;;;;;;;;;17.60;99.90;;;;;;6276791;22;19929;-85
2023/07/11 04:41:00;;;;;;;;;;;17.70;99.90;;;;;;6249506;22;19914;-85
2023/07/11 04:43:26;;;;;;;;;;;17.70;99.90;;;;;;6274876;22;19938;-85
2023/07/11 04:45:54;;;;;;;;;;;17.80;99.90;;;;;;6275021;22;19907;-85
2023/07/11 04:48:20;;;;;;;;;;;17.90;99.90;;;;;;6276622;22;20187;-84
2023/07/11 04:50:46;;;;;;;;;;;18.00;99.90;;;;;;6249233;22;19993;-85
2023/07/11 04:53:12;;;;;;;;;;;18.10;99.90;;;;;;6274826;22;19911;-85
2023/07/11 04:56:02;;;;;;;;;;;18.20;99.90;;;;;;6249301;22;19907;-85
2023/07/11 04:58:29;;;;;;;;;;;18.30;99.90;;;;;;6275059;22;19907;-85
2023/07/11 05:01:02;;;;;;;;;;;18.40;99.90;;;;;;6275892;22;19908;-85
2023/07/11 05:03:28;;;;;;;;;;;18.50;99.90;;;;;;6275135;22;19990;-85
2023/07/11 05:05:54;;;;;;;;;;;18.70;99.90;;;;;;6275273;22;19907;-84
2023/07/11 05:08:38;;;;;;;;;;;18.80;99.90;;;;;;6275005;22;19907;-85
2023/07/11 05:11:13;;;;;;;;;;;18.90;99.90;;;;;;6274318;22;20243;-85
2023/07/11 05:13:39;;;;;;;;;;;19.00;99.90;;;;;;6274489;22;19942;-85
2023/07/11 05:16:06;;;;;;;;;;;19.10;99.90;;;;;;6274666;22;19952;-85
2023/07/11 05:18:33;;;;;;;;;;;19.30;99.90;;;;;;6274652;22;19907;-85
2023/07/11 05:20:59;;;;;;;;;;;19.50;99.90;;;;;;6274479;22;19907;-85
2023/07/11 05:23:27;;;;;;;;;;;19.60;99.90;;;;;;6248941;22;19911;-85
2023/07/11 05:25:54;;;;;;;;;;;19.80;99.90;;;;;;6275116;22;19914;-85
2023/07/11 05:28:20;;;;;;;;;;;19.90;99.90;;;;;;6275297;22;19914;-85
2023/07/11 05:30:46;;;;;;;;;;;20.10;99.90;;;;;;6274898;22;20374;-85
2023/07/11 05:33:12;;;;;;;;;;;20.20;99.90;;;;;;6276359;22;19930;-85
2023/07/11 05:35:41;;;;;;;;;;;20.30;99.90;;;;;;6276867;22;20334;-85
2023/07/11 05:38:06;;;;;;;;;;;20.50;99.90;;;;;;6276547;22;19997;-85
2023/07/11 05:40:32;;;;;;;;;;;20.70;99.90;;;;;;6250652;22;19993;-85
2023/07/11 05:43:04;;;;;;;;;;;20.80;99.90;;;;;;6301684;22;19911;-85
2023/07/11 05:45:30;;;;;;;;;;;21.00;99.90;;;;;;6276015;22;19919;-85
2023/07/11 05:47:58;;;;;;;;;;;21.20;99.90;;;;;;6275871;22;20247;-85
2023/07/11 05:50:24;;;;;;;;;;;21.30;99.90;;;;;;6276438;22;20043;-85
2023/07/11 05:52:50;;;;;;;;;;;21.40;99.90;;;;;;6276409;22;19990;-85
2023/07/11 05:55:15;;;;;;;;;;;21.60;99.90;;;;;;6250798;22;20367;-85
2023/07/11 05:57:41;;;;;;;;;;;21.70;99.90;;;;;;6250772;22;19957;-85
2023/07/11 06:00:09;;;;;;;;;;;21.80;99.90;;;;;;6275821;22;19942;-85
2023/07/11 06:03:08;;;;;;;;;;;21.90;99.90;;;;;;6277729;22;20308;-85
2023/07/11 06:05:34;;;;;;;;;;;22.10;99.90;;;;;;6276645;22;19957;-85
2023/07/11 06:08:00;;;;;;;;;;;22.20;99.90;;;;;;6251037;22;19907;-85
2023/07/11 06:10:26;;;;;;;;;;;22.30;99.90;;;;;;6250666;22;19934;-85
2023/07/11 06:16:03;;;;;;;;;;;22.50;99.90;;;;;;6301886;22;19986;-86
2023/07/11 06:18:35;;;;;;;;;;;22.60;99.90;;;;;;6301906;22;19914;-85
2023/07/11 06:21:01;;;;;;;;;;;22.80;99.90;;;;;;6250520;22;19907;-85
2023/07/11 06:23:27;;;;;;;;;;;22.80;99.90;;;;;;6276406;22;19918;-85
2023/07/11 06:25:53;;;;;;;;;;;22.90;99.90;;;;;;6277799;22;19935;-85
2023/07/11 06:28:18;;;;;;;;;;;23.00;99.90;;;;;;6276124;22;19907;-85
2023/07/11 06:30:44;;;;;;;;;;;23.20;99.90;;;;;;6276091;22;19907;-85
2023/07/11 06:33:10;;;;;;;;;;;23.20;99.90;;;;;;6250711;22;20212;-86
2023/07/11 06:35:40;;;;;;;;;;;23.30;99.90;;;;;;6276682;22;19994;-85
2023/07/11 06:38:06;;;;;;;;;;;23.40;99.90;;;;;;6302228;22;19954;-85
2023/07/11 06:40:32;;;;;;;;;;;23.40;99.90;;;;;;6275959;22;19949;-86
2023/07/11 06:42:58;;;;;;;;;;;23.60;99.90;;;;;;6301340;22;20323;-86
2023/07/11 06:45:24;;;;;;;;;;;23.70;99.90;;;;;;6275733;22;20268;-85
2023/07/11 06:48:17;;;;;;;;;;;23.80;99.90;;;;;;6275621;22;19938;-85
2023/07/11 06:50:47;;;;;;;;;;;23.90;99.90;;;;;;6275599;22;19908;-85
2023/07/11 06:53:12;;;;;;;;;;;24.00;99.90;;;;;;6275864;22;19911;-85
2023/07/11 06:55:44;;;;;;;;;;;23.90;99.90;;;;;;6250111;22;20438;-85
2023/07/11 06:58:11;;;;;;;;;;;24.10;99.90;;;;;;6250359;22;19986;-85
2023/07/11 07:00:37;;;;;;;;;;;24.20;99.90;;;;;;6275529;22;19934;-85
2023/07/11 07:03:02;;;;;;;;;;;24.10;99.90;;;;;;6275611;22;19923;-85
2023/07/11 07:05:28;;;;;;;;;;;24.10;99.90;;;;;;6275636;22;19965;-85
2023/07/11 07:07:54;;;;;;;;;;;24.10;99.90;;;;;;6277201;22;19907;-85
2023/07/11 07:10:19;;;;;;;;;;;24.10;99.90;;;;;;6275356;22;19911;-85
2023/07/11 07:12:48;;;;;;;;;;;24.20;99.90;;;;;;6277195;22;19908;-85
2023/07/11 07:15:14;;;;;;;;;;;24.40;99.90;;;;;;6275438;22;19908;-84
2023/07/11 07:17:40;;;;;;;;;;;24.30;99.90;;;;;;6249933;22;20346;-85
2023/07/11 07:20:06;;;;;;;;;;;24.40;99.90;;;;;;6277319;22;20430;-85
2023/07/11 07:22:31;;;;;;;;;;;24.40;99.90;;;;;;6277123;22;19990;-85
2023/07/11 07:25:19;;;;;;;;;;;24.40;99.90;;;;;;6250115;22;19931;-84
2023/07/11 07:27:44;;;;;;;;;;;24.60;99.90;;;;;;6275180;22;19907;-86
2023/07/11 07:30:11;;;;;;;;;;;25.20;99.90;;;;;;6249679;22;19953;-85
2023/07/11 07:32:37;;;;;;;;;;;26.10;99.90;;;;;;6275506;22;19913;-85
2023/07/11 07:35:03;;;;;;;;;;;27.50;99.90;;;;;;6274784;22;20515;-85
2023/07/11 07:37:29;;;;;;;;;;;28.40;99.20;;;;;;6275242;22;20330;-85
2023/07/11 07:39:54;;;;;;;;;;;29.10;97.20;;;;;;6250382;22;19907;-85
2023/07/11 07:42:20;;;;;;;;;;;28.80;95.70;;;;;;6249816;22;19911;-85
2023/07/11 07:44:47;;;;;;;;;;;28.10;96.60;;;;;;6275160;22;19911;-85
2023/07/11 07:47:13;;;;;;;;;;;27.20;96.10;;;;;;6275032;22;19907;-85
2023/07/11 07:49:38;;;;;;;;;;;26.50;96.80;;;;;;6275373;22;19935;-85
2023/07/11 07:52:04;;;;;;;;;;;26.10;97.90;;;;;;6275510;22;19907;-85
2023/07/11 07:54:30;;;;;;;;;;;25.90;98.10;;;;;;6276494;22;19912;-85
2023/07/11 07:56:56;;;;;;;;;;;25.80;98.50;;;;;;6275124;22;19911;-85
2023/07/11 07:59:21;;;;;;;;;;;25.90;98.70;;;;;;6275342;22;19911;-86
2023/07/11 08:01:47;;;;;;;;;;;26.20;98.40;;;;;;6275025;22;19945;-85
2023/07/11 08:04:13;;;;;;;;;;;27.20;97.30;;;;;;6249415;22;20341;-85
2023/07/11 08:06:39;;;;;;;;;;;28.50;95.80;;;;;;6275227;22;19977;-85
2023/07/11 08:09:04;;;;;;;;;;;29.20;94.70;;;;;;6275601;22;19908;-86
2023/07/11 08:11:30;;;;;;;;;;;30.10;93.40;;;;;;6274773;22;19982;-85
2023/07/11 08:13:56;;;;;;;;;;;30.60;92.10;;;;;;6276119;22;19937;-85
2023/07/11 08:16:21;;;;;;;;;;;31.20;91.10;;;;;;6275018;22;20212;-85
2023/07/11 08:18:47;;;;;;;;;;;31.90;89.80;;;;;;6275257;22;19915;-85
2023/07/11 08:21:13;;;;;;;;;;;31.70;89.40;;;;;;6274562;22;19911;-85
2023/07/11 08:23:38;;;;;;;;;;;31.60;88.60;;;;;;6274878;22;19954;-85
2023/07/11 08:26:04;;;;;;;;;;;32.10;86.80;;;;;;6249845;22;20327;-85
2023/07/11 08:29:06;;;;;;;;;;;32.10;85.70;;;;;;6300679;22;20319;-85
2023/07/11 08:31:32;;;;;;;;;;;31.90;84.40;;;;;;6275043;22;20000;-85
2023/07/11 08:33:58;;;;;;;;;;;32.00;84.70;;;;;;6249620;22;19911;-85
2023/07/11 08:36:23;;;;;;;;;;;31.90;82.80;;;;;;6275192;22;19966;-86
2023/07/11 08:38:49;;;;;;;;;;;32.40;83.00;;;;;;6275534;22;19907;-85
2023/07/11 08:41:25;;;;;;;;;;;32.30;83.10;;;;;;6249589;22;20223;-85
2023/07/11 08:43:53;;;;;;;;;;;32.50;82.60;;;;;;6249442;22;20416;-85
2023/07/11 08:46:21;;;;;;;;;;;32.30;82.40;;;;;;6248812;22;19953;-86
2023/07/11 08:48:56;;;;;;;;;;;32.40;81.20;;;;;;6275243;22;19911;-86
2023/07/11 08:51:43;;;;;;;;;;;32.50;81.00;;;;;;6300652;22;19915;-85
2023/07/11 08:54:28;;;;;;;;;;;33.10;79.90;;;;;;6300875;22;20284;-85
2023/07/11 08:56:54;;;;;;;;;;;33.30;79.50;;;;;;6274846;22;19929;-86
2023/07/11 08:59:28;;;;;;;;;;;34.00;78.70;;;;;;6274858;22;19985;-85
2023/07/11 09:02:05;;;;;;;;;;;33.60;76.40;;;;;;6275043;22;19935;-86
2023/07/11 09:04:30;;;;;;;;;;;33.40;78.80;;;;;;6275454;22;19907;-86
2023/07/11 09:07:29;;;;;;;;;;;32.70;79.40;;;;;;6275269;22;19911;-85
2023/07/11 09:09:56;;;;;;;;;;;31.90;80.60;;;;;;6218460;22;19907;-85
2023/07/11 09:12:57;;;;;;;;;;;32.10;80.60;;;;;;6275865;22;20323;-85
2023/07/11 09:15:32;;;;;;;;;;;32.80;79.10;;;;;;6160333;23;19909;-85
2023/07/11 09:18:00;;;;;;;;;;;33.20;78.30;;;;;;6258778;22;19911;-85
2023/07/11 09:20:32;;;;;;;;;;;33.30;76.00;;;;;;6276777;22;19942;-85
2023/07/11 09:23:24;;;;;;;;;;;33.50;77.60;;;;;;6251386;22;19934;-86
2023/07/11 09:25:51;;;;;;;;;;;33.90;76.90;;;;;;6216710;22;19907;-86
2023/07/11 09:28:17;;;;;;;;;;;34.00;76.20;;;;;;6251545;22;19907;-86
2023/07/11 09:30:46;;;;;;;;;;;34.40;76.00;;;;;;6276835;22;20347;-85
2023/07/11 09:33:14;;;;;;;;;;;35.00;76.40;;;;;;6302496;22;19995;-86
2023/07/11 09:35:41;;;;;;;;;;;35.70;74.90;;;;;;6277252;22;19994;-86
2023/07/11 09:38:13;;;;;;;;;;;36.00;73.60;;;;;;6278206;22;19930;-86
2023/07/11 09:40:50;;;;;;;;;;;36.00;73.50;;;;;;6276476;22;20330;-86
2023/07/11 09:43:16;;;;;;;;;;;36.50;71.60;;;;;;6302119;22;20006;-86
2023/07/11 09:45:44;;;;;;;10.60;5.37;;;36.70;70.70;;;;;;6276294;22;20303;-86
2023/07/11 09:48:31;;;;;;;9.40;4.80;;;36.90;69.40;;;;;;6275864;22;20545;-86
2023/07/11 09:51:00;;;;;;;7.63;5.05;;;37.10;68.90;;;;;;6250772;22;20069;-86
2023/07/11 09:53:29;;;;;;;10.77;5.18;;;37.60;66.80;;;;;;6251179;22;20507;-87
2023/07/11 09:56:03;;;;;;;7.68;4.95;;;37.40;68.00;;;;;;6275998;22;20003;-86
2023/07/11 09:58:32;;;;;;;7.78;4.95;;;37.30;67.20;;;;;;6250104;22;20443;-86
2023/07/11 10:01:01;;;;;;;12.95;6.18;;;37.10;66.50;;;;;;6275991;22;20036;-86
2023/07/11 10:03:29;;;;;;;8.35;6.20;;;35.90;70.80;;;;;;6250253;22;20038;-86
2023/07/11 10:05:54;;;;;;;8.88;6.18;;;34.60;73.60;;;;;;6277906;22;20042;-86
2023/07/11 10:08:35;;;;;;;16.38;6.15;;;33.70;74.80;;;;;;6250427;22;20004;-86
2023/07/11 10:11:04;;;;;;;9.38;6.25;;;34.20;74.20;;;;;;6250181;22;20004;-86
2023/07/11 10:13:33;;;;;;;19.67;6.85;;;34.70;72.60;;;;;;6250776;22;20032;-86
2023/07/11 10:15:59;;;;;;;16.33;6.07;;;34.50;73.70;;;;;;6302352;22;20064;-86
2023/07/11 10:18:28;;;;;;;14.18;6.47;;;34.00;74.80;;;;;;6250101;22;20015;-86
2023/07/11 10:21:13;;;;;;;14.77;6.57;;;34.30;74.70;;;;;;6275885;22;20000;-86
2023/07/11 10:23:43;;;;;;;12.75;5.70;;;34.00;74.60;;;;;;6276186;22;20451;-86
2023/07/11 10:26:09;;;;;;;11.77;6.53;;;33.60;76.00;;;;;;6275604;22;20018;-85
2023/07/11 10:28:55;;;;;;;8.60;5.75;;;33.20;76.30;;;;;;6249995;22;20008;-86
2023/07/11 10:31:34;;;;;;;13.18;6.50;;;33.20;77.00;;;;;;6275955;22;20000;-86
2023/07/11 10:34:05;;;;;;;11.18;6.43;;;32.80;76.60;;;;;;6250560;22;20012;-86
2023/07/11 10:36:46;;;;;;;9.70;6.68;;;32.70;80.30;;;;;;6250624;22;20003;-86
2023/07/11 10:39:26;;;;;;;12.43;6.18;;;32.80;79.10;;;;;;6276434;22;20086;-86
2023/07/11 10:42:02;;;;;;;12.40;6.50;;;32.80;79.20;;;;;;6250027;22;20012;-86
2023/07/11 10:44:37;;;;;;;14.35;6.72;;;32.40;80.10;;;;;;6250504;22;20008;-86
2023/07/11 10:47:04;;;;;;;15.90;6.57;;;32.50;79.80;;;;;;6250171;22;20078;-86
2023/07/11 10:49:45;;;;;;;12.43;6.22;;;32.90;78.90;;;;;;6275157;22;20007;-85
2023/07/11 10:52:27;;;;;;;12.23;6.82;;;33.00;77.40;;;;;;6251341;22;20422;-86
2023/07/11 10:55:01;;;;;;;10.05;6.82;;;32.60;79.10;;;;;;6277360;22;20035;-86
2023/07/11 10:58:23;;;;;;;11.32;6.93;;;32.20;79.20;;;;;;6250153;22;20439;-86
2023/07/11 11:01:29;;;;;;;15.98;6.22;;;31.90;79.60;;;;;;6276036;22;20004;-86
2023/07/11 11:04:30;;;;;;;15.52;6.55;;;32.60;79.60;;;;;;6275905;22;20633;-86
2023/07/11 11:07:23;;;;;;;10.18;6.00;;;33.40;79.40;;;;;;6301624;22;20435;-85
2023/07/11 11:10:20;;;;;;;16.20;7.13;;;33.80;77.70;;;;;;6254655;22;20010;-86
2023/07/11 11:13:02;;;;;;;16.20;6.40;;;33.70;75.20;;;;;;6249791;22;20008;-86
2023/07/11 11:15:51;;;;;;;10.98;6.30;;;33.60;74.80;;;;;;6249826;22;20014;-86
2023/07/11 11:18:20;;;;;;;14.55;7.10;;;33.70;75.30;;;;;;6277675;22;20011;-85
2023/07/11 11:21:07;;;;;;;14.07;7.40;;;33.70;74.50;;;;;;6250164;22;20008;-86
2023/07/11 11:23:52;;;;;;;9.95;6.45;;;33.70;76.40;;;;;;6275391;22;20031;-86
2023/07/11 11:26:46;;;;;;;13.02;6.82;;;34.20;74.00;;;;;;6250251;22;20522;-86
2023/07/11 11:29:21;;;;;;;12.75;7.25;;;34.40;73.70;;;;;;6249852;22;20007;-87
2023/07/11 11:32:09;;;;;;;15.90;7.22;;;34.90;72.90;;;;;;6249897;22;20078;-86
2023/07/11 11:35:46;;;;;;;10.73;6.43;;;34.70;71.80;;;;;;6249762;22;20335;-87
2023/07/11 11:38:46;;;;;;;15.95;7.53;;;34.30;73.90;;;;;;6275323;22;20046;-86
2023/07/11 11:41:16;;;;;;;16.23;7.88;;;34.30;71.30;;;;;;6307131;22;20285;-84
2023/07/11 11:43:47;;;;;;;12.98;6.82;;;34.20;72.30;;;;;;6280338;22;20465;-84
2023/07/11 11:46:15;;;;;;;19.20;7.40;;;34.30;70.50;;;;;;6280849;22;20471;-84
2023/07/11 11:48:41;;;;;;;14.60;7.20;;;34.40;71.70;;;;;;6254847;22;20011;-84
2023/07/11 11:51:17;;;;;;;14.77;7.60;;;34.30;72.40;;;;;;6255006;22;20007;-84
2023/07/11 11:54:06;;;;;;;13.18;6.97;;;34.40;70.80;;;;;;6255241;22;20018;-84
2023/07/11 11:56:35;;;;;;;11.93;7.57;;;34.30;71.30;;;;;;6255158;22;20079;-85
2023/07/11 11:59:03;;;;;;;;;;;34.00;71.20;;;;;;6254855;22;20648;-85
2023/07/11 12:01:36;;;;;;;;;;;34.40;72.00;;;;;;6255175;22;20032;-84
2023/07/11 12:04:22;;;;;;;;;;;34.60;72.10;;;;;;6304609;22;20023;-87
2023/07/11 12:06:50;;;;;;;;;;;34.70;71.60;;;;;;6278515;22;20376;-87
2023/07/11 12:09:15;;;;;;;;;;;34.90;70.00;;;;;;6253530;22;20016;-85
2023/07/11 12:11:45;;;;;;;;;;;34.70;69.60;;;;;;6278864;22;20017;-85
2023/07/11 12:14:18;;;;;;;;;;;34.70;70.50;;;;;;6279512;22;19909;-84
2023/07/11 12:16:47;;;;;;;;;;;34.80;71.00;;;;;;6279843;22;19903;-86
2023/07/11 12:19:26;;;;;;;;;;;34.80;69.40;;;;;;6280164;22;19902;-86
2023/07/11 12:21:56;;;;;;;;;;;34.50;70.00;;;;;;6253674;22;24050;-86
2023/07/11 12:24:24;;;;;;;;;;;34.60;70.50;;;;;;6279162;22;20028;-86
2023/07/11 12:26:50;;;;;;;;;;;34.70;71.20;;;;;;6254020;22;20352;-86
2023/07/11 12:29:34;;;;;;;;;;;35.30;70.90;;;;;;6254669;22;19907;-87
2023/07/11 12:32:23;;;;;;;;;;;35.50;68.60;;;;;;6280410;22;19903;-86
2023/07/11 12:34:54;;;;;;;;;;;35.30;69.90;;;;;;6304823;22;19907;-84
2023/07/11 12:37:20;;;;;;;;;;;34.70;69.80;;;;;;6278767;22;19945;-86
2023/07/11 12:39:50;;;;;;;;;;;34.30;70.40;;;;;;6253395;22;19933;-86
2023/07/11 12:42:23;;;;;;;;;;;34.70;70.20;;;;;;6281936;22;19911;-86
2023/07/11 12:44:54;;;;;;;;;;;34.50;69.70;;;;;;6282012;22;19910;-85
2023/07/11 12:47:20;;;;;;;;;;;34.10;71.30;;;;;;6256620;22;19909;-83
2023/07/11 12:49:47;;;;;;;;;;;34.00;71.10;;;;;;6256564;22;20319;-84
2023/07/11 12:52:17;;;;;;;;;;;34.50;72.80;;;;;;6282572;22;19909;-86
2023/07/11 12:54:43;;;;;;;;;;;35.40;70.50;;;;;;6282175;22;19910;-87
2023/07/11 12:57:13;;;;;;;;;;;35.70;69.20;;;;;;6257338;22;20303;-87
2023/07/11 12:59:39;;;;;;;;;;;36.60;69.30;;;;;;6257273;22;19909;-86
2023/07/11 13:02:05;;;;;;;;;;;37.00;68.80;;;;;;6256649;22;20235;-86
2023/07/11 13:04:34;;;;;;;;;;;36.80;69.10;;;;;;6256702;22;19909;-86
2023/07/11 13:07:02;;;;;;;;;;;37.10;69.30;;;;;;6282185;22;19907;-87
2023/07/11 13:09:47;;;;;;;;;;;37.50;68.70;;;;;;6307986;22;19902;-87
2023/07/11 13:12:18;;;;;;;;;;;37.60;67.90;;;;;;6282110;22;19984;-86
2023/07/11 13:14:45;;;;;;;;;;;37.10;67.60;;;;;;6282417;22;19910;-86
2023/07/11 13:17:12;;;;;;;;;;;36.40;68.40;;;;;;6282416;22;19902;-87
2023/07/11 13:19:38;;;;;;;;;;;36.40;69.20;;;;;;6282346;22;19903;-87
2023/07/11 13:22:12;;;;;;;;;;;36.70;68.70;;;;;;6282523;22;19907;-86
2023/07/11 13:24:38;;;;;;;;;;;36.40;69.50;;;;;;6282236;22;19952;-86
2023/07/11 13:27:04;;;;;;;;;;;35.70;69.60;;;;;;6256817;22;19902;-87
2023/07/11 13:29:35;;;;;;;;;;;35.40;71.20;;;;;;6256400;22;20040;-86
2023/07/11 13:32:11;;;;;;;;;;;35.40;70.30;;;;;;6282341;22;19903;-86
2023/07/11 13:34:37;;;;;;;;;;;35.10;69.60;;;;;;6282429;22;20315;-86
2023/07/11 13:37:06;;;;;;;;;;;34.60;71.40;;;;;;6282036;22;20028;-87
2023/07/11 13:39:42;;;;;;;;;;;34.80;72.70;;;;;;6282413;22;19903;-86
2023/07/11 13:42:11;;;;;;;;;;;34.50;72.10;;;;;;6309631;22;19909;-86
2023/07/11 13:44:45;;;;;;;;;;;34.70;73.00;;;;;;6282286;22;19903;-87
2023/07/11 13:47:19;;;;;;;;;;;35.00;72.10;;;;;;6256975;22;19910;-86
2023/07/11 13:49:46;;;;;;;;;;;34.30;71.10;;;;;;6308039;22;20264;-87
2023/07/11 13:52:32;;;;;;;;;;;33.90;72.30;;;;;;6256305;22;19926;-86
2023/07/11 13:55:01;;;;;;;;;;;33.80;72.70;;;;;;6307006;22;19930;-86
2023/07/11 13:57:27;;;;;;;;;;;34.20;71.90;;;;;;6307979;22;20028;-86
2023/07/11 13:59:52;;;;;;;;;;;34.40;70.40;;;;;;6282120;22;19937;-86
2023/07/11 14:02:18;;;;;;;;;;;34.00;71.40;;;;;;6256273;22;19909;-86
2023/07/11 14:04:44;;;;;;;;;;;33.70;72.70;;;;;;6282418;22;19899;-86
2023/07/11 14:07:10;;;;;;;;;;;34.00;72.80;;;;;;6282230;22;19903;-86
2023/07/11 14:09:36;;;;;;;;;;;34.80;70.60;;;;;;6256847;22;19906;-88
2023/07/11 14:12:02;;;;;;;;;;;34.10;70.70;;;;;;6256459;22;20346;-86
2023/07/11 14:14:28;;;;;;;;;;;34.10;72.10;;;;;;6256312;22;19909;-87
2023/07/11 14:16:54;;;;;;;;;;;34.30;71.80;;;;;;6256414;22;19955;-87
2023/07/11 14:19:32;;;;;;;;;;;34.90;69.80;;;;;;6256726;22;19903;-88
2023/07/11 14:21:59;;;;;;;;;;;36.10;68.20;;;;;;6281917;22;19914;-86